Jiaonan, China
Current Conditions -  °F | °C
As of 11:00 AM on Monday 24 Nov 2014 (Local Time) from ZSQD Reporting Station
Clear Clear  
Wind Chill: 55°   Ceiling: Unl
Heat Index: 55°   Visibility: 4mi
Dew Point: 41°   Wind: 11mph
Humidity: 58%   Direction: 20°NNE
Pressure: 30.21"   Gusts: NA
Location:  35.88°N, 119.96°E
Report Text: ZSQD 240300Z 02005MPS 350V050 6000 NSC 13/05 Q1023 NOSIG
Loading
Personal Weather Stations






























Interactive Weather Map New forecast layout! Learn more

10-Day Weather Forecast

Advertisements
Track Severe Weather on mobile